sensor_id;sensor_type;location;lat;lon;timestamp;pressure;altitude;pressure_sealevel;temperature;humidity
53932;BME280;39844;52.496;13.482;2022-12-29T00:00:34;100485.13;;;7.77;93.13
53932;BME280;39844;52.496;13.482;2022-12-29T00:02:59;100480.75;;;7.76;93.02
53932;BME280;39844;52.496;13.482;2022-12-29T00:05:24;100476.44;;;7.78;92.91
53932;BME280;39844;52.496;13.482;2022-12-29T00:07:50;100472.06;;;7.80;92.71
53932;BME280;39844;52.496;13.482;2022-12-29T00:10:15;100460.72;;;7.81;92.54
53932;BME280;39844;52.496;13.482;2022-12-29T00:12:40;100472.06;;;7.84;91.82
53932;BME280;39844;52.496;13.482;2022-12-29T00:15:06;100472.09;;;7.87;91.60
53932;BME280;39844;52.496;13.482;2022-12-29T00:17:32;100465.13;;;7.89;90.97
53932;BME280;39844;52.496;13.482;2022-12-29T00:19:57;100466.88;;;7.90;90.77
53932;BME280;39844;52.496;13.482;2022-12-29T00:22:22;100458.16;;;7.90;90.33
53932;BME280;39844;52.496;13.482;2022-12-29T00:24:47;100457.28;;;7.91;90.21
53932;BME280;39844;52.496;13.482;2022-12-29T00:27:13;100457.28;;;7.91;90.04
53932;BME280;39844;52.496;13.482;2022-12-29T00:29:38;100461.66;;;7.92;90.10
53932;BME280;39844;52.496;13.482;2022-12-29T00:32:04;100452.94;;;7.93;90.02
53932;BME280;39844;52.496;13.482;2022-12-29T00:34:29;100465.16;;;7.95;89.38
53932;BME280;39844;52.496;13.482;2022-12-29T00:36:55;100457.31;;;7.97;89.07
53932;BME280;39844;52.496;13.482;2022-12-29T00:39:20;100448.59;;;7.98;88.94
53932;BME280;39844;52.496;13.482;2022-12-29T00:41:47;100437.25;;;7.99;88.56
53932;BME280;39844;52.496;13.482;2022-12-29T00:44:13;100451.22;;;8.02;88.47
53932;BME280;39844;52.496;13.482;2022-12-29T00:46:41;100445.13;;;8.06;87.67
53932;BME280;39844;52.496;13.482;2022-12-29T00:49:07;100444.25;;;8.07;87.57
53932;BME280;39844;52.496;13.482;2022-12-29T00:51:33;100445.16;;;8.11;87.10
53932;BME280;39844;52.496;13.482;2022-12-29T00:53:58;100434.69;;;8.11;87.17
53932;BME280;39844;52.496;13.482;2022-12-29T00:56:24;100434.69;;;8.12;86.91
53932;BME280;39844;52.496;13.482;2022-12-29T00:58:49;100436.44;;;8.13;86.71
53932;BME280;39844;52.496;13.482;2022-12-29T01:01:14;100441.63;;;8.12;86.93
53932;BME280;39844;52.496;13.482;2022-12-29T01:03:39;100424.22;;;8.12;86.98
53932;BME280;39844;52.496;13.482;2022-12-29T01:06:07;100425.97;;;8.12;86.76
53932;BME280;39844;52.496;13.482;2022-12-29T01:08:33;100419.88;;;8.13;87.17
53932;BME280;39844;52.496;13.482;2022-12-29T01:11:06;100424.22;;;8.11;87.58
53932;BME280;39844;52.496;13.482;2022-12-29T01:13:32;100420.75;;;8.10;87.65
53932;BME280;39844;52.496;13.482;2022-12-29T01:15:57;100426.81;;;8.09;87.54
53932;BME280;39844;52.496;13.482;2022-12-29T01:18:24;100427.72;;;8.08;87.26
53932;BME280;39844;52.496;13.482;2022-12-29T01:20:49;100421.63;;;8.08;87.81
53932;BME280;39844;52.496;13.482;2022-12-29T01:23:15;100430.34;;;8.08;87.45
53932;BME280;39844;52.496;13.482;2022-12-29T01:25:41;100434.66;;;8.09;87.70
53932;BME280;39844;52.496;13.482;2022-12-29T01:28:06;100428.56;;;8.12;86.98
53932;BME280;39844;52.496;13.482;2022-12-29T01:30:32;100428.59;;;8.13;86.62
53932;BME280;39844;52.496;13.482;2022-12-29T01:32:57;100428.56;;;8.12;86.93
53932;BME280;39844;52.496;13.482;2022-12-29T01:35:23;100430.31;;;8.11;87.22
53932;BME280;39844;52.496;13.482;2022-12-29T01:37:48;100428.59;;;8.10;86.97
53932;BME280;39844;52.496;13.482;2022-12-29T01:40:13;100424.22;;;8.11;86.90
53932;BME280;39844;52.496;13.482;2022-12-29T01:42:39;100420.72;;;8.12;86.91
53932;BME280;39844;52.496;13.482;2022-12-29T01:45:16;100418.97;;;8.14;86.86
53932;BME280;39844;52.496;13.482;2022-12-29T01:47:47;100424.22;;;8.14;86.82
53932;BME280;39844;52.496;13.482;2022-12-29T01:50:21;100419.84;;;8.11;87.29
53932;BME280;39844;52.496;13.482;2022-12-29T01:53:00;100413.78;;;8.11;87.88
53932;BME280;39844;52.496;13.482;2022-12-29T01:55:33;100411.16;;;8.09;88.21
53932;BME280;39844;52.496;13.482;2022-12-29T01:58:01;100418.09;;;8.09;88.54
53932;BME280;39844;52.496;13.482;2022-12-29T02:00:27;100408.53;;;8.08;88.62
53932;BME280;39844;52.496;13.482;2022-12-29T02:02:53;100407.66;;;8.07;88.55
53932;BME280;39844;52.496;13.482;2022-12-29T02:05:39;100395.47;;;8.05;89.13
53932;BME280;39844;52.496;13.482;2022-12-29T02:08:07;100391.09;;;8.04;89.31
53932;BME280;39844;52.496;13.482;2022-12-29T02:10:34;100393.72;;;8.02;89.38
53932;BME280;39844;52.496;13.482;2022-12-29T02:13:00;100398.06;;;8.02;89.42
53932;BME280;39844;52.496;13.482;2022-12-29T02:21:52;100392.84;;;7.99;89.45
53932;BME280;39844;52.496;13.482;2022-12-29T02:24:39;100384.13;;;7.98;89.41
53932;BME280;39844;52.496;13.482;2022-12-29T02:30:05;100385.84;;;8.01;88.92
53932;BME280;39844;52.496;13.482;2022-12-29T02:32:37;100374.56;;;8.00;88.93
53932;BME280;39844;52.496;13.482;2022-12-29T02:35:29;100371.94;;;7.99;88.66
53932;BME280;39844;52.496;13.482;2022-12-29T02:38:14;100370.19;;;8.01;88.39
53932;BME280;39844;52.496;13.482;2022-12-29T02:40:52;100371.94;;;8.00;88.28
53932;BME280;39844;52.496;13.482;2022-12-29T02:51:52;100362.34;;;8.01;87.13
53932;BME280;39844;52.496;13.482;2022-12-29T02:54:20;100368.47;;;8.03;86.63
53932;BME280;39844;52.496;13.482;2022-12-29T02:56:45;100361.50;;;8.03;86.21
53932;BME280;39844;52.496;13.482;2022-12-29T02:59:11;100363.25;;;8.06;86.27
53932;BME280;39844;52.496;13.482;2022-12-29T03:06:52;100352.78;;;8.18;84.60
53932;BME280;39844;52.496;13.482;2022-12-29T03:12:37;100340.59;;;8.29;83.38
53932;BME280;39844;52.496;13.482;2022-12-29T03:15:12;100338.84;;;8.34;83.01
53932;BME280;39844;52.496;13.482;2022-12-29T03:20:24;100331.00;;;8.40;82.64
53932;BME280;39844;52.496;13.482;2022-12-29T03:22:54;100331.00;;;8.43;82.42
53932;BME280;39844;52.496;13.482;2022-12-29T03:25:28;100328.38;;;8.45;82.29
53932;BME280;39844;52.496;13.482;2022-12-29T03:27:58;100336.22;;;8.48;81.79
53932;BME280;39844;52.496;13.482;2022-12-29T03:30:26;100334.47;;;8.50;81.92
53932;BME280;39844;52.496;13.482;2022-12-29T03:32:59;100324.00;;;8.51;81.55
53932;BME280;39844;52.496;13.482;2022-12-29T03:35:30;100318.75;;;8.56;81.10
53932;BME280;39844;52.496;13.482;2022-12-29T03:38:19;100329.22;;;8.60;80.84
53932;BME280;39844;52.496;13.482;2022-12-29T03:40:52;100323.97;;;8.60;80.68
53932;BME280;39844;52.496;13.482;2022-12-29T03:43:18;100324.00;;;8.62;80.88
53932;BME280;39844;52.496;13.482;2022-12-29T03:45:44;100314.38;;;8.64;80.52
53932;BME280;39844;52.496;13.482;2022-12-29T03:48:09;100310.03;;;8.63;80.67
53932;BME280;39844;52.496;13.482;2022-12-29T03:50:34;100303.91;;;8.62;80.86
53932;BME280;39844;52.496;13.482;2022-12-29T03:53:00;100302.16;;;8.63;80.58
53932;BME280;39844;52.496;13.482;2022-12-29T03:55:25;100309.16;;;8.64;81.00
53932;BME280;39844;52.496;13.482;2022-12-29T03:57:50;100308.25;;;8.65;80.81
53932;BME280;39844;52.496;13.482;2022-12-29T04:00:15;100311.78;;;8.64;80.92
53932;BME280;39844;52.496;13.482;2022-12-29T04:02:41;100316.97;;;8.65;81.06
53932;BME280;39844;52.496;13.482;2022-12-29T04:05:07;100326.59;;;8.66;81.21
53932;BME280;39844;52.496;13.482;2022-12-29T04:07:32;100317.84;;;8.70;80.97
53932;BME280;39844;52.496;13.482;2022-12-29T04:09:57;100312.59;;;8.73;80.58
53932;BME280;39844;52.496;13.482;2022-12-29T04:12:23;100309.97;;;8.75;80.87
53932;BME280;39844;52.496;13.482;2022-12-29T04:14:48;100312.59;;;8.75;80.68
53932;BME280;39844;52.496;13.482;2022-12-29T04:17:13;100319.56;;;8.76;80.87
53932;BME280;39844;52.496;13.482;2022-12-29T04:19:39;100308.22;;;8.78;80.40
53932;BME280;39844;52.496;13.482;2022-12-29T04:22:04;100309.97;;;8.79;80.82
53932;BME280;39844;52.496;13.482;2022-12-29T04:24:29;100300.38;;;8.81;80.17
53932;BME280;39844;52.496;13.482;2022-12-29T04:26:55;100320.44;;;8.81;80.78
53932;BME280;39844;52.496;13.482;2022-12-29T04:29:20;100315.19;;;8.81;80.90
53932;BME280;39844;52.496;13.482;2022-12-29T04:31:45;100326.53;;;8.81;80.99
53932;BME280;39844;52.496;13.482;2022-12-29T04:34:10;100309.09;;;8.80;80.86
53932;BME280;39844;52.496;13.482;2022-12-29T04:36:36;100307.38;;;8.79;80.72
53932;BME280;39844;52.496;13.482;2022-12-29T04:39:01;100303.84;;;8.77;80.90
53932;BME280;39844;52.496;13.482;2022-12-29T04:41:27;100294.28;;;8.78;80.96
53932;BME280;39844;52.496;13.482;2022-12-29T04:43:52;100299.50;;;8.79;80.86
53932;BME280;39844;52.496;13.482;2022-12-29T04:46:17;100302.13;;;8.79;81.13
53932;BME280;39844;52.496;13.482;2022-12-29T04:48:43;100297.75;;;8.81;80.71
53932;BME280;39844;52.496;13.482;2022-12-29T04:51:08;100293.38;;;8.80;80.70
53932;BME280;39844;52.496;13.482;2022-12-29T04:53:33;100301.22;;;8.80;80.74
53932;BME280;39844;52.496;13.482;2022-12-29T04:55:59;100290.78;;;8.80;80.92
53932;BME280;39844;52.496;13.482;2022-12-29T04:58:24;100289.91;;;8.78;80.68
53932;BME280;39844;52.496;13.482;2022-12-29T05:00:50;100282.06;;;8.75;81.13
53932;BME280;39844;52.496;13.482;2022-12-29T05:03:16;100275.94;;;8.78;81.31
53932;BME280;39844;52.496;13.482;2022-12-29T05:05:41;100276.81;;;8.81;81.56
53932;BME280;39844;52.496;13.482;2022-12-29T05:08:06;100275.91;;;8.85;81.01
53932;BME280;39844;52.496;13.482;2022-12-29T05:10:31;100290.75;;;8.89;81.01
53932;BME280;39844;52.496;13.482;2022-12-29T05:12:57;100274.16;;;8.94;80.73
53932;BME280;39844;52.496;13.482;2022-12-29T05:15:23;100278.50;;;8.95;80.91
53932;BME280;39844;52.496;13.482;2022-12-29T05:17:48;100276.75;;;9.00;80.68
53932;BME280;39844;52.496;13.482;2022-12-29T05:20:13;100276.69;;;9.03;80.68
53932;BME280;39844;52.496;13.482;2022-12-29T05:22:38;100272.34;;;9.06;80.81
53932;BME280;39844;52.496;13.482;2022-12-29T05:25:04;100259.22;;;9.08;80.55
53932;BME280;39844;52.496;13.482;2022-12-29T05:27:30;100261.84;;;9.11;80.76
53932;BME280;39844;52.496;13.482;2022-12-29T05:29:55;100274.88;;;9.15;80.32
53932;BME280;39844;52.496;13.482;2022-12-29T05:32:20;100260.94;;;9.16;80.11
53932;BME280;39844;52.496;13.482;2022-12-29T05:34:46;100244.34;;;9.17;80.40
53932;BME280;39844;52.496;13.482;2022-12-29T05:37:11;100244.34;;;9.19;80.35
53932;BME280;39844;52.496;13.482;2022-12-29T05:39:36;100253.09;;;9.18;80.10
53932;BME280;39844;52.496;13.482;2022-12-29T05:42:02;100244.34;;;9.17;80.68
53932;BME280;39844;52.496;13.482;2022-12-29T05:44:27;100254.81;;;9.19;80.96
53932;BME280;39844;52.496;13.482;2022-12-29T05:46:52;100237.34;;;9.21;80.77
53932;BME280;39844;52.496;13.482;2022-12-29T05:49:18;100247.78;;;9.24;80.69
53932;BME280;39844;52.496;13.482;2022-12-29T05:51:43;100246.91;;;9.28;81.23
53932;BME280;39844;52.496;13.482;2022-12-29T05:54:09;100242.50;;;9.34;80.58
53932;BME280;39844;52.496;13.482;2022-12-29T05:56:34;100239.81;;;9.45;80.45
53932;BME280;39844;52.496;13.482;2022-12-29T05:58:59;100242.34;;;9.51;79.74
53932;BME280;39844;52.496;13.482;2022-12-29T06:01:24;100241.47;;;9.55;79.53
53932;BME280;39844;52.496;13.482;2022-12-29T06:03:50;100230.09;;;9.56;79.75
53932;BME280;39844;52.496;13.482;2022-12-29T06:06:15;100230.97;;;9.57;79.87
53932;BME280;39844;52.496;13.482;2022-12-29T06:08:40;100230.97;;;9.58;79.72
53932;BME280;39844;52.496;13.482;2022-12-29T06:11:06;100224.84;;;9.56;79.80
53932;BME280;39844;52.496;13.482;2022-12-29T06:13:31;100222.25;;;9.58;80.14
53932;BME280;39844;52.496;13.482;2022-12-29T06:15:56;100223.09;;;9.60;79.98
53932;BME280;39844;52.496;13.482;2022-12-29T06:18:22;100232.69;;;9.61;80.13
53932;BME280;39844;52.496;13.482;2022-12-29T06:20:47;100226.53;;;9.65;80.34
53932;BME280;39844;52.496;13.482;2022-12-29T06:23:12;100223.88;;;9.66;79.87
53932;BME280;39844;52.496;13.482;2022-12-29T06:25:38;100237.03;;;9.65;79.83
53932;BME280;39844;52.496;13.482;2022-12-29T06:28:03;100231.78;;;9.65;80.15
53932;BME280;39844;52.496;13.482;2022-12-29T06:30:28;100229.13;;;9.69;79.89
53932;BME280;39844;52.496;13.482;2022-12-29T06:32:54;100235.19;;;9.71;79.61
53932;BME280;39844;52.496;13.482;2022-12-29T06:35:19;100231.75;;;9.69;79.48
53932;BME280;39844;52.496;13.482;2022-12-29T06:37:44;100230.00;;;9.68;79.95
53932;BME280;39844;52.496;13.482;2022-12-29T06:40:10;100235.25;;;9.68;79.75
53932;BME280;39844;52.496;13.482;2022-12-29T06:42:35;100241.41;;;9.66;79.89
53932;BME280;39844;52.496;13.482;2022-12-29T06:45:01;100236.16;;;9.63;80.11
53932;BME280;39844;52.496;13.482;2022-12-29T06:47:26;100247.53;;;9.63;80.24
53932;BME280;39844;52.496;13.482;2022-12-29T06:49:52;100248.38;;;9.65;80.22
53932;BME280;39844;52.496;13.482;2022-12-29T06:52:17;100240.50;;;9.68;80.02
53932;BME280;39844;52.496;13.482;2022-12-29T06:54:42;100250.09;;;9.68;79.87
53932;BME280;39844;52.496;13.482;2022-12-29T06:57:08;100251.81;;;9.69;80.38
53932;BME280;39844;52.496;13.482;2022-12-29T06:59:33;100257.06;;;9.70;80.05
53932;BME280;39844;52.496;13.482;2022-12-29T07:01:58;100260.53;;;9.72;79.84
53932;BME280;39844;52.496;13.482;2022-12-29T07:04:24;100260.56;;;9.69;79.67
53932;BME280;39844;52.496;13.482;2022-12-29T07:06:49;100253.56;;;9.70;79.93
53932;BME280;39844;52.496;13.482;2022-12-29T07:09:14;100265.81;;;9.68;79.93
53932;BME280;39844;52.496;13.482;2022-12-29T07:11:40;100257.13;;;9.66;80.04
53932;BME280;39844;52.496;13.482;2022-12-29T07:14:05;100252.78;;;9.59;79.74
53932;BME280;39844;52.496;13.482;2022-12-29T07:16:31;100249.31;;;9.58;80.85
53932;BME280;39844;52.496;13.482;2022-12-29T07:18:57;100255.38;;;9.62;80.10
53932;BME280;39844;52.496;13.482;2022-12-29T07:21:22;100259.75;;;9.61;80.63
53932;BME280;39844;52.496;13.482;2022-12-29T07:23:48;100258.91;;;9.59;80.82
53932;BME280;39844;52.496;13.482;2022-12-29T07:26:14;100263.25;;;9.60;81.10
53932;BME280;39844;52.496;13.482;2022-12-29T07:28:40;100263.25;;;9.63;80.47
53932;BME280;39844;52.496;13.482;2022-12-29T07:31:06;100257.97;;;9.68;81.05
53932;BME280;39844;52.496;13.482;2022-12-29T07:33:32;100257.91;;;9.74;80.99
53932;BME280;39844;52.496;13.482;2022-12-29T07:35:58;100264.88;;;9.78;80.25
53932;BME280;39844;52.496;13.482;2022-12-29T07:38:24;100253.53;;;9.79;80.08
53932;BME280;39844;52.496;13.482;2022-12-29T07:40:49;100249.13;;;9.81;80.36
53932;BME280;39844;52.496;13.482;2022-12-29T07:43:14;100255.22;;;9.83;80.48
53932;BME280;39844;52.496;13.482;2022-12-29T07:45:40;100243.84;;;9.85;80.38
53932;BME280;39844;52.496;13.482;2022-12-29T07:48:05;100257.81;;;9.84;80.24
53932;BME280;39844;52.496;13.482;2022-12-29T07:50:31;100249.09;;;9.85;80.46
53932;BME280;39844;52.496;13.482;2022-12-29T07:52:56;100244.69;;;9.89;80.70
53932;BME280;39844;52.496;13.482;2022-12-29T07:55:21;100250.78;;;9.89;80.25
53932;BME280;39844;52.496;13.482;2022-12-29T07:57:47;100246.41;;;9.90;80.11
53932;BME280;39844;52.496;13.482;2022-12-29T08:00:12;100253.41;;;9.89;80.83
53932;BME280;39844;52.496;13.482;2022-12-29T08:02:38;100253.41;;;9.91;80.43
53932;BME280;39844;52.496;13.482;2022-12-29T08:05:03;100256.84;;;9.94;80.58
53932;BME280;39844;52.496;13.482;2022-12-29T08:07:29;100257.69;;;10.01;80.41
53932;BME280;39844;52.496;13.482;2022-12-29T08:09:54;100256.75;;;10.05;80.09
53932;BME280;39844;52.496;13.482;2022-12-29T08:12:19;100245.38;;;10.07;79.95
53932;BME280;39844;52.496;13.482;2022-12-29T08:14:45;100242.75;;;10.07;79.42
53932;BME280;39844;52.496;13.482;2022-12-29T08:17:10;100250.59;;;10.10;79.36
53932;BME280;39844;52.496;13.482;2022-12-29T08:19:36;100251.44;;;10.15;79.24
53932;BME280;39844;52.496;13.482;2022-12-29T08:22:02;100243.56;;;10.17;78.76
53932;BME280;39844;52.496;13.482;2022-12-29T08:24:27;100245.34;;;10.17;78.89
53932;BME280;39844;52.496;13.482;2022-12-29T08:26:52;100245.31;;;10.18;78.98
53932;BME280;39844;52.496;13.482;2022-12-29T08:29:17;100246.19;;;10.19;78.70
53932;BME280;39844;52.496;13.482;2022-12-29T08:31:43;100247.94;;;10.18;79.05
53932;BME280;39844;52.496;13.482;2022-12-29T08:34:08;100252.28;;;10.18;79.34
53932;BME280;39844;52.496;13.482;2022-12-29T08:36:33;100240.91;;;10.20;79.15
53932;BME280;39844;52.496;13.482;2022-12-29T08:38:59;100247.03;;;10.21;78.72
53932;BME280;39844;52.496;13.482;2022-12-29T08:41:24;100247.00;;;10.22;79.05
53932;BME280;39844;52.496;13.482;2022-12-29T08:43:49;100236.50;;;10.24;78.91
53932;BME280;39844;52.496;13.482;2022-12-29T08:46:16;100232.13;;;10.23;78.69
53932;BME280;39844;52.496;13.482;2022-12-29T08:48:41;100244.38;;;10.24;78.42
53932;BME280;39844;52.496;13.482;2022-12-29T08:51:07;100244.38;;;10.22;78.48
53932;BME280;39844;52.496;13.482;2022-12-29T08:53:32;100250.56;;;10.17;78.18
53932;BME280;39844;52.496;13.482;2022-12-29T08:55:59;100240.09;;;10.15;79.05
53932;BME280;39844;52.496;13.482;2022-12-29T08:58:25;100252.31;;;10.14;79.11
53932;BME280;39844;52.496;13.482;2022-12-29T09:00:55;100254.94;;;10.16;79.30
53932;BME280;39844;52.496;13.482;2022-12-29T09:03:22;100246.19;;;10.17;79.65
53932;BME280;39844;52.496;13.482;2022-12-29T09:05:51;100241.75;;;10.22;79.53
53932;BME280;39844;52.496;13.482;2022-12-29T09:08:17;100241.72;;;10.27;79.23
53932;BME280;39844;52.496;13.482;2022-12-29T09:10:43;100245.16;;;10.30;79.04
53932;BME280;39844;52.496;13.482;2022-12-29T09:13:09;100232.94;;;10.28;78.71
53932;BME280;39844;52.496;13.482;2022-12-29T09:15:35;100241.72;;;10.27;78.78
53932;BME280;39844;52.496;13.482;2022-12-29T09:18:00;100244.34;;;10.25;78.88
53932;BME280;39844;52.496;13.482;2022-12-29T09:20:25;100246.09;;;10.25;78.91
53932;BME280;39844;52.496;13.482;2022-12-29T09:22:50;100245.19;;;10.29;79.11
53932;BME280;39844;52.496;13.482;2022-12-29T09:25:16;100242.56;;;10.32;78.89
53932;BME280;39844;52.496;13.482;2022-12-29T09:27:41;100240.72;;;10.38;78.76
53932;BME280;39844;52.496;13.482;2022-12-29T09:30:09;100235.44;;;10.41;78.39
53932;BME280;39844;52.496;13.482;2022-12-29T09:32:35;100238.03;;;10.43;78.33
53932;BME280;39844;52.496;13.482;2022-12-29T09:35:01;100231.88;;;10.47;78.17
53932;BME280;39844;52.496;13.482;2022-12-29T09:37:27;100234.44;;;10.51;78.23
53932;BME280;39844;52.496;13.482;2022-12-29T09:39:52;100222.19;;;10.52;78.11
53932;BME280;39844;52.496;13.482;2022-12-29T09:42:37;100224.78;;;10.53;77.91
53932;BME280;39844;52.496;13.482;2022-12-29T09:45:16;100226.53;;;10.54;77.98
53932;BME280;39844;52.496;13.482;2022-12-29T09:47:44;100210.84;;;10.51;77.97
53932;BME280;39844;52.496;13.482;2022-12-29T09:50:30;100204.72;;;10.52;78.66
53932;BME280;39844;52.496;13.482;2022-12-29T09:53:30;100207.22;;;10.61;78.02
53932;BME280;39844;52.496;13.482;2022-12-29T09:55:59;100210.63;;;10.66;77.63
53932;BME280;39844;52.496;13.482;2022-12-29T09:58:44;100214.03;;;10.73;78.16
53932;BME280;39844;52.496;13.482;2022-12-29T10:01:34;100226.13;;;10.86;77.39
53932;BME280;39844;52.496;13.482;2022-12-29T10:04:01;100212.91;;;10.95;77.04
53932;BME280;39844;52.496;13.482;2022-12-29T10:06:36;100212.75;;;11.04;76.42
53932;BME280;39844;52.496;13.482;2022-12-29T10:25:31;100207.19;;;11.25;75.13
53932;BME280;39844;52.496;13.482;2022-12-29T10:27:59;100206.28;;;11.26;75.23
53932;BME280;39844;52.496;13.482;2022-12-29T10:30:25;100202.69;;;11.32;75.09
53932;BME280;39844;52.496;13.482;2022-12-29T10:33:03;100198.31;;;11.32;75.24
53932;BME280;39844;52.496;13.482;2022-12-29T10:35:39;100201.78;;;11.36;75.01
53932;BME280;39844;52.496;13.482;2022-12-29T10:38:13;100199.94;;;11.41;74.78
53932;BME280;39844;52.496;13.482;2022-12-29T10:40:46;100186.66;;;11.52;74.41
53932;BME280;39844;52.496;13.482;2022-12-29T10:43:33;100196.13;;;11.62;74.16
53932;BME280;39844;52.496;13.482;2022-12-29T10:46:04;100187.25;;;11.69;73.69
53932;BME280;39844;52.496;13.482;2022-12-29T10:48:33;100188.00;;;11.75;73.54
53932;BME280;39844;52.496;13.482;2022-12-29T10:51:01;100189.75;;;11.76;72.91
53932;BME280;39844;52.496;13.482;2022-12-29T10:53:35;100184.41;;;11.81;72.80
53932;BME280;39844;52.496;13.482;2022-12-29T10:56:04;100192.25;;;11.84;73.01
53932;BME280;39844;52.496;13.482;2022-12-29T10:58:39;100183.34;;;11.91;72.78
53932;BME280;39844;52.496;13.482;2022-12-29T11:01:09;100193.78;;;11.97;72.51
53932;BME280;39844;52.496;13.482;2022-12-29T11:06:27;100181.25;;;12.08;71.54
53932;BME280;39844;52.496;13.482;2022-12-29T11:09:08;100175.91;;;12.14;71.43
53932;BME280;39844;52.496;13.482;2022-12-29T11:11:36;100172.34;;;12.17;70.90
53932;BME280;39844;52.496;13.482;2022-12-29T11:14:19;100183.59;;;12.23;70.46
53932;BME280;39844;52.496;13.482;2022-12-29T11:16:56;100179.16;;;12.27;70.29
53932;BME280;39844;52.496;13.482;2022-12-29T11:19:24;100175.66;;;12.26;70.31
53932;BME280;39844;52.496;13.482;2022-12-29T11:21:50;100177.44;;;12.24;70.66
53932;BME280;39844;52.496;13.482;2022-12-29T11:24:25;100177.50;;;12.21;71.01
53932;BME280;39844;52.496;13.482;2022-12-29T11:26:52;100179.31;;;12.19;71.23
53932;BME280;39844;52.496;13.482;2022-12-29T11:29:24;100197.69;;;12.21;71.29
53932;BME280;39844;52.496;13.482;2022-12-29T11:31:56;100203.88;;;12.18;71.10
53932;BME280;39844;52.496;13.482;2022-12-29T11:36:51;100194.34;;;12.13;72.40
53932;BME280;39844;52.496;13.482;2022-12-29T11:39:30;100200.56;;;12.09;73.05
53932;BME280;39844;52.496;13.482;2022-12-29T11:41:57;100195.34;;;12.07;73.91
53932;BME280;39844;52.496;13.482;2022-12-29T11:44:24;100197.97;;;12.05;74.45
53932;BME280;39844;52.496;13.482;2022-12-29T11:46:51;100205.97;;;12.01;74.63
53932;BME280;39844;52.496;13.482;2022-12-29T11:49:22;100198.19;;;11.93;75.65
53932;BME280;39844;52.496;13.482;2022-12-29T11:51:50;100211.44;;;11.89;76.28
53932;BME280;39844;52.496;13.482;2022-12-29T11:54:24;100203.66;;;11.83;76.71
53932;BME280;39844;52.496;13.482;2022-12-29T11:56:50;100204.59;;;11.79;77.10
53932;BME280;39844;52.496;13.482;2022-12-29T12:01:54;100222.22;;;11.74;76.67
53932;BME280;39844;52.496;13.482;2022-12-29T12:04:30;100222.31;;;11.69;76.77
53932;BME280;39844;52.496;13.482;2022-12-29T12:07:15;100227.66;;;11.62;76.94
53932;BME280;39844;52.496;13.482;2022-12-29T12:10:05;100240.94;;;11.53;78.21
53932;BME280;39844;52.496;13.482;2022-12-29T12:12:35;100255.09;;;11.42;80.14
53932;BME280;39844;52.496;13.482;2022-12-29T12:15:03;100243.94;;;11.28;82.40
53932;BME280;39844;52.496;13.482;2022-12-29T12:17:33;100243.25;;;11.14;85.16
53932;BME280;39844;52.496;13.482;2022-12-29T12:22:46;100246.25;;;10.87;87.90
53932;BME280;39844;52.496;13.482;2022-12-29T12:25:19;100245.50;;;10.76;89.20
53932;BME280;39844;52.496;13.482;2022-12-29T12:27:57;100234.22;;;10.68;89.99
53932;BME280;39844;52.496;13.482;2022-12-29T12:30:27;100234.34;;;10.59;91.05
53932;BME280;39844;52.496;13.482;2022-12-29T12:33:35;100231.75;;;10.56;91.95
53932;BME280;39844;52.496;13.482;2022-12-29T12:36:14;100230.91;;;10.54;92.86
53932;BME280;39844;52.496;13.482;2022-12-29T12:39:12;100221.34;;;10.50;93.08
53932;BME280;39844;52.496;13.482;2022-12-29T12:50:00;100220.63;;;10.36;93.83
53932;BME280;39844;52.496;13.482;2022-12-29T12:52:39;100218.94;;;10.32;93.21
53932;BME280;39844;52.496;13.482;2022-12-29T12:58:11;100224.25;;;10.23;92.17
53932;BME280;39844;52.496;13.482;2022-12-29T13:06:26;100219.09;;;10.17;94.52
53932;BME280;39844;52.496;13.482;2022-12-29T13:11:40;100224.34;;;10.15;93.57
53932;BME280;39844;52.496;13.482;2022-12-29T13:14:20;100231.34;;;10.14;93.69
53932;BME280;39844;52.496;13.482;2022-12-29T13:17:10;100228.75;;;10.10;94.27
53932;BME280;39844;52.496;13.482;2022-12-29T13:22:32;100228.75;;;10.10;94.26
53932;BME280;39844;52.496;13.482;2022-12-29T13:25:22;100229.63;;;10.10;94.54
53932;BME280;39844;52.496;13.482;2022-12-29T13:28:11;100237.47;;;10.10;94.27
53932;BME280;39844;52.496;13.482;2022-12-29T13:30:50;100232.22;;;10.10;94.71
53932;BME280;39844;52.496;13.482;2022-12-29T13:33:35;100227.03;;;10.09;94.36
53932;BME280;39844;52.496;13.482;2022-12-29T13:36:25;100235.75;;;10.08;93.93
53932;BME280;39844;52.496;13.482;2022-12-29T13:41:56;100234.84;;;10.10;93.99
53932;BME280;39844;52.496;13.482;2022-12-29T13:46:59;100236.56;;;10.18;93.80
53932;BME280;39844;52.496;13.482;2022-12-29T13:49:26;100234.81;;;10.18;93.42
53932;BME280;39844;52.496;13.482;2022-12-29T13:51:56;100240.03;;;10.20;93.71
53932;BME280;39844;52.496;13.482;2022-12-29T13:54:42;100245.25;;;10.23;93.48
53932;BME280;39844;52.496;13.482;2022-12-29T13:59:50;100238.22;;;10.25;93.21
53932;BME280;39844;52.496;13.482;2022-12-29T14:02:31;100243.50;;;10.23;93.40
53932;BME280;39844;52.496;13.482;2022-12-29T14:05:15;100250.50;;;10.23;93.56
53932;BME280;39844;52.496;13.482;2022-12-29T14:08:01;100248.75;;;10.23;93.71
53932;BME280;39844;52.496;13.482;2022-12-29T14:10:44;100245.25;;;10.23;93.59
53932;BME280;39844;52.496;13.482;2022-12-29T14:13:14;100255.75;;;10.20;93.44
53932;BME280;39844;52.496;13.482;2022-12-29T14:15:42;100254.06;;;10.15;93.03
53932;BME280;39844;52.496;13.482;2022-12-29T14:18:15;100258.47;;;10.09;93.47
53932;BME280;39844;52.496;13.482;2022-12-29T14:20:54;100257.59;;;10.07;94.54